sensor_id;sensor_type;location;lat;lon;timestamp;pressure;altitude;pressure_sealevel;temperature;humidity
61898;BME280;47850;50.274;18.908;2023-05-24T00:02:20;97785.11;;;14.93;94.31
61898;BME280;47850;50.274;18.908;2023-05-24T00:04:48;97787.85;;;14.93;94.32
61898;BME280;47850;50.274;18.908;2023-05-24T00:07:15;97783.45;;;14.93;94.36
61898;BME280;47850;50.274;18.908;2023-05-24T00:09:43;97789.11;;;14.93;94.72
61898;BME280;47850;50.274;18.908;2023-05-24T00:12:11;97790.18;;;14.93;94.65
61898;BME280;47850;50.274;18.908;2023-05-24T00:14:39;97791.42;;;14.92;94.74
61898;BME280;47850;50.274;18.908;2023-05-24T00:17:06;97789.73;;;14.93;94.71
61898;BME280;47850;50.274;18.908;2023-05-24T00:19:34;97788.30;;;14.93;94.63
61898;BME280;47850;50.274;18.908;2023-05-24T00:22:04;97793.48;;;14.93;94.63
61898;BME280;47850;50.274;18.908;2023-05-24T00:24:32;97797.32;;;14.93;95.00
61898;BME280;47850;50.274;18.908;2023-05-24T00:27:00;97793.19;;;14.90;94.91
61898;BME280;47850;50.274;18.908;2023-05-24T00:29:28;97794.58;;;14.90;94.58
61898;BME280;47850;50.274;18.908;2023-05-24T00:31:56;97799.04;;;14.90;94.70
61898;BME280;47850;50.274;18.908;2023-05-24T00:34:23;97802.02;;;14.86;94.69
61898;BME280;47850;50.274;18.908;2023-05-24T00:36:51;97798.77;;;14.83;94.94
61898;BME280;47850;50.274;18.908;2023-05-24T00:39:19;97797.79;;;14.82;94.69
61898;BME280;47850;50.274;18.908;2023-05-24T00:41:47;97794.54;;;14.81;94.61
61898;BME280;47850;50.274;18.908;2023-05-24T00:44:14;97797.67;;;14.80;94.48
61898;BME280;47850;50.274;18.908;2023-05-24T00:46:43;97798.84;;;14.80;94.39
61898;BME280;47850;50.274;18.908;2023-05-24T00:49:11;97798.91;;;14.80;94.35
61898;BME280;47850;50.274;18.908;2023-05-24T00:51:39;97801.18;;;14.80;94.34
61898;BME280;47850;50.274;18.908;2023-05-24T00:54:07;97803.34;;;14.78;94.04
61898;BME280;47850;50.274;18.908;2023-05-24T00:56:34;97806.10;;;14.76;93.98
61898;BME280;47850;50.274;18.908;2023-05-24T00:59:02;97806.46;;;14.74;93.69
61898;BME280;47850;50.274;18.908;2023-05-24T01:01:30;97807.84;;;14.73;93.50
61898;BME280;47850;50.274;18.908;2023-05-24T01:04:01;97805.73;;;14.73;93.26
61898;BME280;47850;50.274;18.908;2023-05-24T01:06:29;97810.73;;;14.72;93.17
61898;BME280;47850;50.274;18.908;2023-05-24T01:11:38;97811.48;;;14.68;92.79
61898;BME280;47850;50.274;18.908;2023-05-24T01:27:45;97814.53;;;14.59;92.70
61898;BME280;47850;50.274;18.908;2023-05-24T01:30:13;97816.77;;;14.58;92.67
61898;BME280;47850;50.274;18.908;2023-05-24T01:32:42;97815.82;;;14.57;92.73
61898;BME280;47850;50.274;18.908;2023-05-24T01:35:10;97823.70;;;14.55;92.77
61898;BME280;47850;50.274;18.908;2023-05-24T01:37:38;97817.88;;;14.51;92.68
61898;BME280;47850;50.274;18.908;2023-05-24T01:40:06;97820.44;;;14.47;92.65
61898;BME280;47850;50.274;18.908;2023-05-24T01:45:32;97822.38;;;14.43;92.64
61898;BME280;47850;50.274;18.908;2023-05-24T01:48:13;97824.73;;;14.43;93.01
61898;BME280;47850;50.274;18.908;2023-05-24T01:50:48;97825.05;;;14.44;93.16
61898;BME280;47850;50.274;18.908;2023-05-24T01:53:19;97828.51;;;14.44;93.07
61898;BME280;47850;50.274;18.908;2023-05-24T01:55:52;97830.62;;;14.43;92.94
61898;BME280;47850;50.274;18.908;2023-05-24T01:58:22;97829.44;;;14.43;92.82
61898;BME280;47850;50.274;18.908;2023-05-24T02:00:50;97834.96;;;14.42;92.75
61898;BME280;47850;50.274;18.908;2023-05-24T02:03:19;97839.55;;;14.40;92.79
61898;BME280;47850;50.274;18.908;2023-05-24T02:05:47;97844.76;;;14.38;92.69
61898;BME280;47850;50.274;18.908;2023-05-24T02:08:16;97844.04;;;14.35;92.58
61898;BME280;47850;50.274;18.908;2023-05-24T02:10:44;97845.30;;;14.32;92.60
61898;BME280;47850;50.274;18.908;2023-05-24T02:13:12;97846.39;;;14.29;92.57
61898;BME280;47850;50.274;18.908;2023-05-24T02:15:39;97848.59;;;14.26;92.71
61898;BME280;47850;50.274;18.908;2023-05-24T02:18:08;97850.71;;;14.23;92.97
61898;BME280;47850;50.274;18.908;2023-05-24T02:20:37;97853.73;;;14.21;92.92
61898;BME280;47850;50.274;18.908;2023-05-24T02:23:05;97854.58;;;14.18;92.99
61898;BME280;47850;50.274;18.908;2023-05-24T02:25:33;97854.46;;;14.16;93.12
61898;BME280;47850;50.274;18.908;2023-05-24T02:28:01;97854.95;;;14.15;93.15
61898;BME280;47850;50.274;18.908;2023-05-24T02:30:29;97856.84;;;14.14;93.17
61898;BME280;47850;50.274;18.908;2023-05-24T02:32:57;97851.02;;;14.14;93.18
61898;BME280;47850;50.274;18.908;2023-05-24T02:35:24;97851.80;;;14.14;93.09
61898;BME280;47850;50.274;18.908;2023-05-24T02:37:53;97853.56;;;14.13;93.26
61898;BME280;47850;50.274;18.908;2023-05-24T02:40:20;97860.39;;;14.13;93.27
61898;BME280;47850;50.274;18.908;2023-05-24T02:42:49;97856.21;;;14.12;93.31
61898;BME280;47850;50.274;18.908;2023-05-24T02:45:17;97856.91;;;14.11;93.15
61898;BME280;47850;50.274;18.908;2023-05-24T02:47:44;97856.05;;;14.11;93.20
61898;BME280;47850;50.274;18.908;2023-05-24T02:50:13;97854.42;;;14.09;93.30
61898;BME280;47850;50.274;18.908;2023-05-24T02:52:41;97858.52;;;14.07;93.24
61898;BME280;47850;50.274;18.908;2023-05-24T02:55:08;97859.29;;;14.07;93.27
61898;BME280;47850;50.274;18.908;2023-05-24T02:57:36;97859.44;;;14.07;93.32
61898;BME280;47850;50.274;18.908;2023-05-24T03:00:05;97859.79;;;14.05;93.44
61898;BME280;47850;50.274;18.908;2023-05-24T03:02:36;97866.83;;;14.04;93.35
61898;BME280;47850;50.274;18.908;2023-05-24T03:05:06;97865.28;;;14.06;93.50
61898;BME280;47850;50.274;18.908;2023-05-24T03:07:34;97866.62;;;14.06;93.34
61898;BME280;47850;50.274;18.908;2023-05-24T03:10:02;97867.40;;;14.06;93.19
61898;BME280;47850;50.274;18.908;2023-05-24T03:12:30;97867.90;;;14.07;93.15
61898;BME280;47850;50.274;18.908;2023-05-24T03:14:57;97867.09;;;14.08;93.04
61898;BME280;47850;50.274;18.908;2023-05-24T03:17:25;97868.29;;;14.09;93.17
61898;BME280;47850;50.274;18.908;2023-05-24T03:19:53;97870.09;;;14.10;93.02
61898;BME280;47850;50.274;18.908;2023-05-24T03:22:21;97873.06;;;14.09;92.83
61898;BME280;47850;50.274;18.908;2023-05-24T03:24:48;97872.87;;;14.08;93.08
61898;BME280;47850;50.274;18.908;2023-05-24T03:27:16;97872.09;;;14.08;92.94
61898;BME280;47850;50.274;18.908;2023-05-24T03:29:44;97875.33;;;14.09;92.84
61898;BME280;47850;50.274;18.908;2023-05-24T03:32:12;97876.05;;;14.10;92.78
61898;BME280;47850;50.274;18.908;2023-05-24T03:34:40;97876.97;;;14.09;92.62
61898;BME280;47850;50.274;18.908;2023-05-24T03:37:07;97878.98;;;14.11;92.55
61898;BME280;47850;50.274;18.908;2023-05-24T03:39:35;97881.93;;;14.13;92.49
61898;BME280;47850;50.274;18.908;2023-05-24T03:42:03;97885.11;;;14.14;92.52
61898;BME280;47850;50.274;18.908;2023-05-24T03:44:31;97888.40;;;14.14;92.72
61898;BME280;47850;50.274;18.908;2023-05-24T03:46:58;97886.70;;;14.13;92.78
61898;BME280;47850;50.274;18.908;2023-05-24T03:49:26;97889.11;;;14.12;92.97
61898;BME280;47850;50.274;18.908;2023-05-24T03:51:54;97886.70;;;14.09;92.97
61898;BME280;47850;50.274;18.908;2023-05-24T03:54:21;97886.70;;;14.10;93.01
61898;BME280;47850;50.274;18.908;2023-05-24T03:56:49;97890.14;;;14.10;93.22
61898;BME280;47850;50.274;18.908;2023-05-24T03:59:19;97887.00;;;14.09;93.19
61898;BME280;47850;50.274;18.908;2023-05-24T04:01:49;97887.73;;;14.10;93.27
61898;BME280;47850;50.274;18.908;2023-05-24T04:04:16;97894.74;;;14.09;93.39
61898;BME280;47850;50.274;18.908;2023-05-24T04:06:44;97894.80;;;14.05;93.89
61898;BME280;47850;50.274;18.908;2023-05-24T04:09:12;97900.77;;;14.03;93.84
61898;BME280;47850;50.274;18.908;2023-05-24T04:11:40;97908.05;;;13.99;94.15
61898;BME280;47850;50.274;18.908;2023-05-24T04:14:08;97907.52;;;13.89;93.55
61898;BME280;47850;50.274;18.908;2023-05-24T04:16:35;97912.68;;;13.75;93.37
61898;BME280;47850;50.274;18.908;2023-05-24T04:19:06;97920.31;;;13.63;93.31
61898;BME280;47850;50.274;18.908;2023-05-24T04:21:34;97923.77;;;13.56;93.44
61898;BME280;47850;50.274;18.908;2023-05-24T04:24:04;97925.63;;;13.44;93.49
61898;BME280;47850;50.274;18.908;2023-05-24T04:26:33;97932.86;;;13.36;93.78
61898;BME280;47850;50.274;18.908;2023-05-24T04:29:01;97937.49;;;13.30;93.86
61898;BME280;47850;50.274;18.908;2023-05-24T04:31:30;97939.31;;;13.20;93.84
61898;BME280;47850;50.274;18.908;2023-05-24T04:33:59;97941.18;;;13.13;93.77
61898;BME280;47850;50.274;18.908;2023-05-24T04:36:28;97946.29;;;13.06;93.84
61898;BME280;47850;50.274;18.908;2023-05-24T04:38:57;97950.48;;;13.00;93.96
61898;BME280;47850;50.274;18.908;2023-05-24T04:41:29;97962.70;;;12.94;94.00
61898;BME280;47850;50.274;18.908;2023-05-24T04:44:02;97962.10;;;12.82;94.12
61898;BME280;47850;50.274;18.908;2023-05-24T04:46:30;97967.73;;;12.73;94.12
61898;BME280;47850;50.274;18.908;2023-05-24T04:48:58;97962.27;;;12.67;94.23
61898;BME280;47850;50.274;18.908;2023-05-24T04:51:25;97965.13;;;12.64;94.44
61898;BME280;47850;50.274;18.908;2023-05-24T04:53:53;97968.13;;;12.62;94.44
61898;BME280;47850;50.274;18.908;2023-05-24T04:56:21;97971.03;;;12.58;94.18
61898;BME280;47850;50.274;18.908;2023-05-24T04:58:49;97972.65;;;12.55;94.01
61898;BME280;47850;50.274;18.908;2023-05-24T05:01:17;97972.20;;;12.53;93.83
61898;BME280;47850;50.274;18.908;2023-05-24T05:03:45;97980.05;;;12.52;93.65
61898;BME280;47850;50.274;18.908;2023-05-24T05:06:13;97981.81;;;12.49;93.49
61898;BME280;47850;50.274;18.908;2023-05-24T05:08:41;97984.45;;;12.48;93.48
61898;BME280;47850;50.274;18.908;2023-05-24T05:11:10;97992.83;;;12.47;93.47
61898;BME280;47850;50.274;18.908;2023-05-24T05:13:37;97995.52;;;12.39;93.65
61898;BME280;47850;50.274;18.908;2023-05-24T05:16:05;97993.27;;;12.35;93.72
61898;BME280;47850;50.274;18.908;2023-05-24T05:18:33;97999.25;;;12.34;93.89
61898;BME280;47850;50.274;18.908;2023-05-24T05:21:01;98002.60;;;12.31;93.88
61898;BME280;47850;50.274;18.908;2023-05-24T05:23:29;98014.09;;;12.25;93.72
61898;BME280;47850;50.274;18.908;2023-05-24T05:25:57;98012.36;;;12.16;93.69
61898;BME280;47850;50.274;18.908;2023-05-24T05:28:25;98024.17;;;12.10;93.76
61898;BME280;47850;50.274;18.908;2023-05-24T05:30:53;98024.10;;;12.02;93.92
61898;BME280;47850;50.274;18.908;2023-05-24T05:33:21;98028.55;;;12.00;94.18
61898;BME280;47850;50.274;18.908;2023-05-24T05:35:48;98032.61;;;11.98;94.15
61898;BME280;47850;50.274;18.908;2023-05-24T05:38:16;98037.22;;;11.96;93.89
61898;BME280;47850;50.274;18.908;2023-05-24T05:40:44;98043.20;;;11.94;93.55
61898;BME280;47850;50.274;18.908;2023-05-24T05:43:12;98046.95;;;11.91;93.31
61898;BME280;47850;50.274;18.908;2023-05-24T05:45:39;98055.98;;;11.83;92.87
61898;BME280;47850;50.274;18.908;2023-05-24T05:48:07;98058.67;;;11.76;92.93
61898;BME280;47850;50.274;18.908;2023-05-24T05:50:35;98056.44;;;11.71;92.83
61898;BME280;47850;50.274;18.908;2023-05-24T05:53:03;98061.88;;;11.70;92.76
61898;BME280;47850;50.274;18.908;2023-05-24T05:55:30;98064.52;;;11.68;92.55
61898;BME280;47850;50.274;18.908;2023-05-24T05:57:58;98070.02;;;11.67;92.33
61898;BME280;47850;50.274;18.908;2023-05-24T06:00:26;98073.23;;;11.67;92.20
61898;BME280;47850;50.274;18.908;2023-05-24T06:02:54;98074.17;;;11.68;91.88
61898;BME280;47850;50.274;18.908;2023-05-24T06:05:21;98076.42;;;11.67;91.75
61898;BME280;47850;50.274;18.908;2023-05-24T06:07:49;98082.34;;;11.65;91.49
61898;BME280;47850;50.274;18.908;2023-05-24T06:10:17;98084.44;;;11.62;91.47
61898;BME280;47850;50.274;18.908;2023-05-24T06:12:45;98085.93;;;11.61;91.47
61898;BME280;47850;50.274;18.908;2023-05-24T06:15:13;98088.38;;;11.59;91.27
61898;BME280;47850;50.274;18.908;2023-05-24T06:17:40;98091.20;;;11.60;91.19
61898;BME280;47850;50.274;18.908;2023-05-24T06:20:11;98097.84;;;11.62;91.08
61898;BME280;47850;50.274;18.908;2023-05-24T06:22:42;98097.34;;;11.61;90.71
61898;BME280;47850;50.274;18.908;2023-05-24T06:25:10;98107.29;;;11.62;90.45
61898;BME280;47850;50.274;18.908;2023-05-24T06:27:41;98104.77;;;11.62;90.18
61898;BME280;47850;50.274;18.908;2023-05-24T06:30:10;98106.51;;;11.64;90.15
61898;BME280;47850;50.274;18.908;2023-05-24T06:32:38;98107.42;;;11.68;90.08
61898;BME280;47850;50.274;18.908;2023-05-24T06:35:06;98116.02;;;11.70;89.85
61898;BME280;47850;50.274;18.908;2023-05-24T06:37:35;98118.73;;;11.71;89.82
61898;BME280;47850;50.274;18.908;2023-05-24T06:40:04;98119.84;;;11.73;89.69
61898;BME280;47850;50.274;18.908;2023-05-24T06:42:34;98132.04;;;11.76;89.58
61898;BME280;47850;50.274;18.908;2023-05-24T06:45:02;98132.39;;;11.75;89.46
61898;BME280;47850;50.274;18.908;2023-05-24T06:47:30;98136.67;;;11.75;89.28
61898;BME280;47850;50.274;18.908;2023-05-24T06:49:58;98137.31;;;11.75;89.36
61898;BME280;47850;50.274;18.908;2023-05-24T06:52:27;98136.66;;;11.77;89.28
61898;BME280;47850;50.274;18.908;2023-05-24T06:54:55;98138.48;;;11.79;89.05
61898;BME280;47850;50.274;18.908;2023-05-24T06:57:23;98136.79;;;11.79;88.66
61898;BME280;47850;50.274;18.908;2023-05-24T06:59:51;98139.84;;;11.84;88.47
61898;BME280;47850;50.274;18.908;2023-05-24T07:02:19;98142.11;;;11.88;88.23
61898;BME280;47850;50.274;18.908;2023-05-24T07:04:53;98148.98;;;11.86;87.92
61898;BME280;47850;50.274;18.908;2023-05-24T07:07:21;98149.38;;;11.90;88.10
61898;BME280;47850;50.274;18.908;2023-05-24T07:09:48;98146.08;;;11.97;87.90
61898;BME280;47850;50.274;18.908;2023-05-24T07:12:16;98152.25;;;12.06;87.72
61898;BME280;47850;50.274;18.908;2023-05-24T07:14:44;98150.48;;;12.15;87.35
61898;BME280;47850;50.274;18.908;2023-05-24T07:17:13;98153.30;;;12.25;86.97
61898;BME280;47850;50.274;18.908;2023-05-24T07:19:41;98156.67;;;12.33;86.68
61898;BME280;47850;50.274;18.908;2023-05-24T07:22:08;98165.24;;;12.44;86.45
61898;BME280;47850;50.274;18.908;2023-05-24T07:24:36;98164.71;;;12.52;86.11
61898;BME280;47850;50.274;18.908;2023-05-24T07:27:04;98167.80;;;12.59;85.75
61898;BME280;47850;50.274;18.908;2023-05-24T07:29:32;98172.53;;;12.67;85.50
61898;BME280;47850;50.274;18.908;2023-05-24T07:32:00;98175.67;;;12.69;84.69
61898;BME280;47850;50.274;18.908;2023-05-24T07:34:28;98173.35;;;12.72;84.56
61898;BME280;47850;50.274;18.908;2023-05-24T07:36:56;98175.61;;;12.72;84.18
61898;BME280;47850;50.274;18.908;2023-05-24T07:39:27;98181.84;;;12.73;83.94
61898;BME280;47850;50.274;18.908;2023-05-24T07:41:55;98180.15;;;12.72;83.62
61898;BME280;47850;50.274;18.908;2023-05-24T07:44:23;98189.60;;;12.71;84.00
61898;BME280;47850;50.274;18.908;2023-05-24T07:46:51;98195.56;;;12.72;83.70
61898;BME280;47850;50.274;18.908;2023-05-24T07:49:19;98199.80;;;12.74;83.56
61898;BME280;47850;50.274;18.908;2023-05-24T07:51:47;98200.23;;;12.82;83.54
61898;BME280;47850;50.274;18.908;2023-05-24T07:54:15;98206.88;;;12.82;83.03
61898;BME280;47850;50.274;18.908;2023-05-24T07:56:43;98211.45;;;12.75;82.83
61898;BME280;47850;50.274;18.908;2023-05-24T07:59:11;98211.75;;;12.64;83.23
61898;BME280;47850;50.274;18.908;2023-05-24T08:01:39;98211.94;;;12.54;83.26
61898;BME280;47850;50.274;18.908;2023-05-24T08:04:08;98215.14;;;12.49;83.68
61898;BME280;47850;50.274;18.908;2023-05-24T08:06:36;98216.73;;;12.43;83.62
61898;BME280;47850;50.274;18.908;2023-05-24T08:09:04;98217.21;;;12.38;83.81
61898;BME280;47850;50.274;18.908;2023-05-24T08:11:32;98218.53;;;12.32;83.52
61898;BME280;47850;50.274;18.908;2023-05-24T08:14:00;98216.06;;;12.28;83.82
61898;BME280;47850;50.274;18.908;2023-05-24T08:16:28;98223.47;;;12.30;83.66
61898;BME280;47850;50.274;18.908;2023-05-24T08:18:55;98223.10;;;12.23;83.62
61898;BME280;47850;50.274;18.908;2023-05-24T08:21:23;98230.36;;;12.13;83.61
61898;BME280;47850;50.274;18.908;2023-05-24T08:23:51;98229.02;;;12.03;83.87
61898;BME280;47850;50.274;18.908;2023-05-24T08:26:19;98233.34;;;11.98;84.22
61898;BME280;47850;50.274;18.908;2023-05-24T08:28:47;98231.06;;;11.94;84.44
61898;BME280;47850;50.274;18.908;2023-05-24T08:31:15;98235.39;;;12.00;84.64
61898;BME280;47850;50.274;18.908;2023-05-24T08:33:43;98239.33;;;12.08;84.26
61898;BME280;47850;50.274;18.908;2023-05-24T08:36:11;98243.70;;;12.14;83.99
61898;BME280;47850;50.274;18.908;2023-05-24T08:38:38;98245.19;;;12.18;83.69
61898;BME280;47850;50.274;18.908;2023-05-24T08:41:06;98251.83;;;12.26;83.59
61898;BME280;47850;50.274;18.908;2023-05-24T08:43:35;98255.88;;;12.32;83.05
61898;BME280;47850;50.274;18.908;2023-05-24T08:46:04;98253.84;;;12.41;82.89
61898;BME280;47850;50.274;18.908;2023-05-24T08:48:43;98259.98;;;12.54;82.46
61898;BME280;47850;50.274;18.908;2023-05-24T08:51:13;98260.98;;;12.61;81.78
61898;BME280;47850;50.274;18.908;2023-05-24T08:53:45;98261.75;;;12.59;81.63
61898;BME280;47850;50.274;18.908;2023-05-24T08:56:17;98264.95;;;12.63;81.40
61898;BME280;47850;50.274;18.908;2023-05-24T08:58:45;98270.91;;;12.64;80.70
61898;BME280;47850;50.274;18.908;2023-05-24T09:01:15;98271.52;;;12.59;80.64
61898;BME280;47850;50.274;18.908;2023-05-24T09:03:45;98271.81;;;12.61;80.73
61898;BME280;47850;50.274;18.908;2023-05-24T09:06:16;98278.39;;;12.73;80.75
61898;BME280;47850;50.274;18.908;2023-05-24T09:08:44;98282.76;;;12.79;80.33
61898;BME280;47850;50.274;18.908;2023-05-24T09:11:14;98288.01;;;12.83;79.91
61898;BME280;47850;50.274;18.908;2023-05-24T09:13:44;98292.60;;;12.91;79.10
61898;BME280;47850;50.274;18.908;2023-05-24T09:16:12;98298.61;;;12.93;78.56
61898;BME280;47850;50.274;18.908;2023-05-24T09:18:41;98303.22;;;13.03;78.16
61898;BME280;47850;50.274;18.908;2023-05-24T09:21:09;98304.81;;;13.16;77.55
61898;BME280;47850;50.274;18.908;2023-05-24T09:23:39;98308.30;;;13.28;76.83
61898;BME280;47850;50.274;18.908;2023-05-24T09:26:07;98310.30;;;13.37;76.65
61898;BME280;47850;50.274;18.908;2023-05-24T09:28:36;98306.77;;;13.49;76.40
61898;BME280;47850;50.274;18.908;2023-05-24T09:31:04;98308.11;;;13.58;76.04
61898;BME280;47850;50.274;18.908;2023-05-24T09:33:33;98310.84;;;13.63;76.25
61898;BME280;47850;50.274;18.908;2023-05-24T09:36:03;98312.04;;;13.69;76.20
61898;BME280;47850;50.274;18.908;2023-05-24T09:38:31;98317.14;;;13.79;75.50
61898;BME280;47850;50.274;18.908;2023-05-24T09:43:30;98316.20;;;13.92;75.32
61898;BME280;47850;50.274;18.908;2023-05-24T09:45:58;98318.63;;;13.83;75.15
61898;BME280;47850;50.274;18.908;2023-05-24T09:48:28;98326.30;;;13.76;75.27
61898;BME280;47850;50.274;18.908;2023-05-24T09:51:04;98327.88;;;13.70;75.10
61898;BME280;47850;50.274;18.908;2023-05-24T09:53:34;98330.59;;;13.63;75.17
61898;BME280;47850;50.274;18.908;2023-05-24T09:56:03;98329.20;;;13.64;74.88
61898;BME280;47850;50.274;18.908;2023-05-24T09:58:31;98325.38;;;13.70;74.83
61898;BME280;47850;50.274;18.908;2023-05-24T10:01:04;98325.52;;;13.92;74.42
61898;BME280;47850;50.274;18.908;2023-05-24T10:03:34;98325.30;;;14.23;73.65
61898;BME280;47850;50.274;18.908;2023-05-24T10:06:05;98322.89;;;14.49;73.02
61898;BME280;47850;50.274;18.908;2023-05-24T10:08:38;98325.59;;;14.62;72.13
61898;BME280;47850;50.274;18.908;2023-05-24T10:11:06;98332.14;;;14.56;72.30
61898;BME280;47850;50.274;18.908;2023-05-24T10:13:34;98337.86;;;14.46;72.11
61898;BME280;47850;50.274;18.908;2023-05-24T10:16:03;98337.95;;;14.37;71.82
61898;BME280;47850;50.274;18.908;2023-05-24T10:18:31;98338.83;;;14.33;71.92
61898;BME280;47850;50.274;18.908;2023-05-24T10:21:00;98336.66;;;14.43;72.31
61898;BME280;47850;50.274;18.908;2023-05-24T10:23:30;98336.42;;;14.55;71.69
61898;BME280;47850;50.274;18.908;2023-05-24T10:26:04;98338.29;;;14.59;71.83
61898;BME280;47850;50.274;18.908;2023-05-24T10:28:45;98339.40;;;14.58;71.51
61898;BME280;47850;50.274;18.908;2023-05-24T10:31:23;98337.21;;;14.50;71.33
61898;BME280;47850;50.274;18.908;2023-05-24T10:34:02;98337.27;;;14.49;71.52
61898;BME280;47850;50.274;18.908;2023-05-24T10:36:49;98337.62;;;14.70;71.25
61898;BME280;47850;50.274;18.908;2023-05-24T10:39:33;98339.65;;;14.99;69.91
61898;BME280;47850;50.274;18.908;2023-05-24T10:42:07;98344.11;;;15.11;69.07
61898;BME280;47850;50.274;18.908;2023-05-24T10:44:43;98343.79;;;15.13;68.74
61898;BME280;47850;50.274;18.908;2023-05-24T10:47:53;98341.64;;;15.37;68.81
61898;BME280;47850;50.274;18.908;2023-05-24T10:50:29;98341.23;;;15.55;67.72
61898;BME280;47850;50.274;18.908;2023-05-24T10:53:21;98343.91;;;15.58;67.57
61898;BME280;47850;50.274;18.908;2023-05-24T10:56:07;98345.63;;;15.66;67.68
61898;BME280;47850;50.274;18.908;2023-05-24T11:01:32;98353.31;;;15.90;67.27
61898;BME280;47850;50.274;18.908;2023-05-24T11:04:22;98353.38;;;15.78;66.70
61898;BME280;47850;50.274;18.908;2023-05-24T11:07:03;98351.80;;;15.62;66.77
61898;BME280;47850;50.274;18.908;2023-05-24T11:09:47;98351.07;;;15.58;67.11
61898;BME280;47850;50.274;18.908;2023-05-24T11:12:29;98353.55;;;15.55;67.15
61898;BME280;47850;50.274;18.908;2023-05-24T11:15:22;98352.95;;;15.42;67.55
61898;BME280;47850;50.274;18.908;2023-05-24T11:20:53;98354.54;;;15.40;68.49
61898;BME280;47850;50.274;18.908;2023-05-24T11:24:05;98354.40;;;15.33;68.53
61898;BME280;47850;50.274;18.908;2023-05-24T11:27:16;98351.08;;;15.26;68.57
61898;BME280;47850;50.274;18.908;2023-05-24T11:29:52;98357.48;;;15.25;68.76
61898;BME280;47850;50.274;18.908;2023-05-24T11:32:32;98357.83;;;15.19;68.73
61898;BME280;47850;50.274;18.908;2023-05-24T11:35:09;98361.86;;;15.15;68.67
61898;BME280;47850;50.274;18.908;2023-05-24T11:37:49;98360.27;;;14.99;68.74
61898;BME280;47850;50.274;18.908;2023-05-24T11:40:31;98358.95;;;14.94;69.15
61898;BME280;47850;50.274;18.908;2023-05-24T11:43:08;98357.42;;;14.91;69.19
61898;BME280;47850;50.274;18.908;2023-05-24T11:45:53;98361.24;;;14.85;69.33
61898;BME280;47850;50.274;18.908;2023-05-24T11:48:36;98354.95;;;14.79;69.19
61898;BME280;47850;50.274;18.908;2023-05-24T11:51:29;98349.89;;;14.80;69.66
61898;BME280;47850;50.274;18.908;2023-05-24T11:54:00;98351.78;;;14.88;69.75
61898;BME280;47850;50.274;18.908;2023-05-24T11:56:30;98353.51;;;15.01;69.41
61898;BME280;47850;50.274;18.908;2023-05-24T11:59:25;98352.30;;;15.12;68.85
61898;BME280;47850;50.274;18.908;2023-05-24T12:02:09;98348.86;;;15.23;68.46
61898;BME280;47850;50.274;18.908;2023-05-24T12:04:50;98351.11;;;15.36;68.37
61898;BME280;47850;50.274;18.908;2023-05-24T12:07:22;98350.89;;;15.42;68.14
61898;BME280;47850;50.274;18.908;2023-05-24T12:09:56;98348.13;;;15.49;68.30
61898;BME280;47850;50.274;18.908;2023-05-24T12:12:45;98353.98;;;15.53;67.79
61898;BME280;47850;50.274;18.908;2023-05-24T12:15:18;98349.26;;;15.47;67.78
61898;BME280;47850;50.274;18.908;2023-05-24T12:17:56;98351.39;;;15.45;68.08
61898;BME280;47850;50.274;18.908;2023-05-24T12:20:30;98347.63;;;15.45;67.78
61898;BME280;47850;50.274;18.908;2023-05-24T12:22:59;98355.30;;;15.45;67.62
61898;BME280;47850;50.274;18.908;2023-05-24T12:25:27;98352.23;;;15.46;67.93
61898;BME280;47850;50.274;18.908;2023-05-24T12:27:55;98359.45;;;15.53;67.75
61898;BME280;47850;50.274;18.908;2023-05-24T12:30:26;98362.71;;;15.43;67.50
61898;BME280;47850;50.274;18.908;2023-05-24T12:32:55;98362.13;;;15.34;67.80
61898;BME280;47850;50.274;18.908;2023-05-24T12:35:23;98361.25;;;15.30;68.37
61898;BME280;47850;50.274;18.908;2023-05-24T12:37:57;98358.63;;;15.32;68.36
61898;BME280;47850;50.274;18.908;2023-05-24T12:40:32;98359.17;;;15.37;68.37
61898;BME280;47850;50.274;18.908;2023-05-24T12:43:02;98358.23;;;15.46;68.32
61898;BME280;47850;50.274;18.908;2023-05-24T12:45:30;98357.63;;;15.57;68.02
61898;BME280;47850;50.274;18.908;2023-05-24T12:47:59;98361.11;;;15.58;67.44
61898;BME280;47850;50.274;18.908;2023-05-24T12:50:29;98359.38;;;15.47;67.48
61898;BME280;47850;50.274;18.908;2023-05-24T12:52:58;98367.09;;;15.37;67.68
61898;BME280;47850;50.274;18.908;2023-05-24T12:55:26;98367.43;;;15.23;67.95
61898;BME280;47850;50.274;18.908;2023-05-24T12:57:55;98363.98;;;15.09;68.40
61898;BME280;47850;50.274;18.908;2023-05-24T13:00:24;98360.57;;;15.03;68.63
61898;BME280;47850;50.274;18.908;2023-05-24T13:02:56;98359.65;;;14.96;68.62
61898;BME280;47850;50.274;18.908;2023-05-24T13:05:28;98359.64;;;14.89;68.97
61898;BME280;47850;50.274;18.908;2023-05-24T13:07:56;98359.04;;;14.85;69.17
61898;BME280;47850;50.274;18.908;2023-05-24T13:10:25;98358.77;;;14.86;69.49
61898;BME280;47850;50.274;18.908;2023-05-24T13:12:53;98356.76;;;14.87;69.43
61898;BME280;47850;50.274;18.908;2023-05-24T13:15:22;98363.09;;;14.91;69.44
61898;BME280;47850;50.274;18.908;2023-05-24T13:17:51;98357.86;;;14.94;69.22
61898;BME280;47850;50.274;18.908;2023-05-24T13:20:20;98356.11;;;15.01;69.05
61898;BME280;47850;50.274;18.908;2023-05-24T13:22:48;98360.70;;;15.10;68.61
61898;BME280;47850;50.274;18.908;2023-05-24T13:25:17;98359.79;;;15.16;68.54
61898;BME280;47850;50.274;18.908;2023-05-24T13:27:46;98353.48;;;15.15;68.85
61898;BME280;47850;50.274;18.908;2023-05-24T13:30:16;98357.48;;;15.21;68.52
61898;BME280;47850;50.274;18.908;2023-05-24T13:32:46;98351.52;;;15.26;68.22
61898;BME280;47850;50.274;18.908;2023-05-24T13:35:16;98349.55;;;15.39;67.88